sensor_id;sensor_type;location;lat;lon;timestamp;temperature;humidity
39931;DHT22;26635;-35.248;149.138;2022-11-15T00:02:01;17.30;68.60
39931;DHT22;26635;-35.248;149.138;2022-11-15T00:04:34;17.50;68.40
39931;DHT22;26635;-35.248;149.138;2022-11-15T00:07:04;17.60;67.10
39931;DHT22;26635;-35.248;149.138;2022-11-15T00:09:39;17.60;67.70
39931;DHT22;26635;-35.248;149.138;2022-11-15T00:12:13;17.80;69.20
39931;DHT22;26635;-35.248;149.138;2022-11-15T00:14:43;18.20;65.30
39931;DHT22;26635;-35.248;149.138;2022-11-15T00:17:18;18.50;66.40
39931;DHT22;26635;-35.248;149.138;2022-11-15T00:19:56;18.80;66.30
39931;DHT22;26635;-35.248;149.138;2022-11-15T00:22:33;19.00;65.40
39931;DHT22;26635;-35.248;149.138;2022-11-15T00:25:03;18.80;64.70
39931;DHT22;26635;-35.248;149.138;2022-11-15T00:27:34;18.70;67.20
39931;DHT22;26635;-35.248;149.138;2022-11-15T00:30:05;18.50;66.00
39931;DHT22;26635;-35.248;149.138;2022-11-15T00:32:37;18.30;66.80
39931;DHT22;26635;-35.248;149.138;2022-11-15T00:35:08;18.00;65.20
39931;DHT22;26635;-35.248;149.138;2022-11-15T00:37:38;17.80;66.30
39931;DHT22;26635;-35.248;149.138;2022-11-15T00:40:09;17.50;67.60
39931;DHT22;26635;-35.248;149.138;2022-11-15T00:42:40;17.30;68.30
39931;DHT22;26635;-35.248;149.138;2022-11-15T00:45:10;17.10;66.60
39931;DHT22;26635;-35.248;149.138;2022-11-15T00:47:43;17.10;67.80
39931;DHT22;26635;-35.248;149.138;2022-11-15T00:50:14;17.10;68.70
39931;DHT22;26635;-35.248;149.138;2022-11-15T00:52:45;17.30;70.20
39931;DHT22;26635;-35.248;149.138;2022-11-15T00:55:17;17.60;69.80
39931;DHT22;26635;-35.248;149.138;2022-11-15T00:57:48;18.00;68.80
39931;DHT22;26635;-35.248;149.138;2022-11-15T01:00:19;18.30;66.20
39931;DHT22;26635;-35.248;149.138;2022-11-15T01:02:49;18.50;66.30
39931;DHT22;26635;-35.248;149.138;2022-11-15T01:05:20;18.70;66.50
39931;DHT22;26635;-35.248;149.138;2022-11-15T01:07:55;18.90;63.80
39931;DHT22;26635;-35.248;149.138;2022-11-15T01:10:26;19.00;66.30
39931;DHT22;26635;-35.248;149.138;2022-11-15T01:12:56;19.00;66.00
39931;DHT22;26635;-35.248;149.138;2022-11-15T01:15:27;19.00;65.00
39931;DHT22;26635;-35.248;149.138;2022-11-15T01:17:58;18.90;64.40
39931;DHT22;26635;-35.248;149.138;2022-11-15T01:20:29;18.90;64.60
39931;DHT22;26635;-35.248;149.138;2022-11-15T01:23:00;18.90;64.30
39931;DHT22;26635;-35.248;149.138;2022-11-15T01:25:31;18.80;66.10
39931;DHT22;26635;-35.248;149.138;2022-11-15T01:28:01;18.80;65.10
39931;DHT22;26635;-35.248;149.138;2022-11-15T01:30:32;18.80;65.50
39931;DHT22;26635;-35.248;149.138;2022-11-15T01:33:02;18.90;65.80
39931;DHT22;26635;-35.248;149.138;2022-11-15T01:35:39;19.00;65.90
39931;DHT22;26635;-35.248;149.138;2022-11-15T01:38:10;19.10;64.90
39931;DHT22;26635;-35.248;149.138;2022-11-15T01:40:40;19.20;62.10
39931;DHT22;26635;-35.248;149.138;2022-11-15T01:43:27;19.30;63.00
39931;DHT22;26635;-35.248;149.138;2022-11-15T01:46:04;19.50;62.50
39931;DHT22;26635;-35.248;149.138;2022-11-15T01:48:36;19.40;61.90
39931;DHT22;26635;-35.248;149.138;2022-11-15T01:51:09;19.30;63.40
39931;DHT22;26635;-35.248;149.138;2022-11-15T01:53:46;19.20;62.80
39931;DHT22;26635;-35.248;149.138;2022-11-15T01:56:23;19.20;64.90
39931;DHT22;26635;-35.248;149.138;2022-11-15T01:58:58;19.30;62.80
39931;DHT22;26635;-35.248;149.138;2022-11-15T02:01:31;19.40;63.20
39931;DHT22;26635;-35.248;149.138;2022-11-15T02:04:12;19.50;63.80
39931;DHT22;26635;-35.248;149.138;2022-11-15T02:06:44;19.40;61.90
39931;DHT22;26635;-35.248;149.138;2022-11-15T02:09:17;19.40;62.60
39931;DHT22;26635;-35.248;149.138;2022-11-15T02:11:49;19.60;63.20
39931;DHT22;26635;-35.248;149.138;2022-11-15T02:14:21;19.50;62.40
39931;DHT22;26635;-35.248;149.138;2022-11-15T02:23:55;19.60;62.40
39931;DHT22;26635;-35.248;149.138;2022-11-15T02:29:17;19.70;62.80
39931;DHT22;26635;-35.248;149.138;2022-11-15T02:37:33;19.10;64.40
39931;DHT22;26635;-35.248;149.138;2022-11-15T02:42:45;19.00;64.10
39931;DHT22;26635;-35.248;149.138;2022-11-15T02:45:44;19.20;65.20
39931;DHT22;26635;-35.248;149.138;2022-11-15T02:48:16;19.30;63.50
39931;DHT22;26635;-35.248;149.138;2022-11-15T02:50:48;19.30;63.90
39931;DHT22;26635;-35.248;149.138;2022-11-15T02:53:25;19.30;60.40
39931;DHT22;26635;-35.248;149.138;2022-11-15T02:55:57;19.30;63.90
39931;DHT22;26635;-35.248;149.138;2022-11-15T03:01:11;19.30;62.40
39931;DHT22;26635;-35.248;149.138;2022-11-15T03:06:57;19.40;61.50
39931;DHT22;26635;-35.248;149.138;2022-11-15T03:09:54;19.50;61.60
39931;DHT22;26635;-35.248;149.138;2022-11-15T03:12:51;19.30;60.70
39931;DHT22;26635;-35.248;149.138;2022-11-15T03:16:21;19.20;62.00
39931;DHT22;26635;-35.248;149.138;2022-11-15T03:19:07;19.30;61.30
39931;DHT22;26635;-35.248;149.138;2022-11-15T03:21:35;19.40;62.50
39931;DHT22;26635;-35.248;149.138;2022-11-15T03:24:08;19.30;58.10
39931;DHT22;26635;-35.248;149.138;2022-11-15T03:26:44;19.30;60.50
39931;DHT22;26635;-35.248;149.138;2022-11-15T03:29:44;19.20;59.80
39931;DHT22;26635;-35.248;149.138;2022-11-15T03:32:19;19.20;61.30
39931;DHT22;26635;-35.248;149.138;2022-11-15T03:37:45;19.10;59.80
39931;DHT22;26635;-35.248;149.138;2022-11-15T03:40:41;18.90;60.60
39931;DHT22;26635;-35.248;149.138;2022-11-15T03:46:20;18.60;61.40
39931;DHT22;26635;-35.248;149.138;2022-11-15T03:48:58;18.30;61.90
39931;DHT22;26635;-35.248;149.138;2022-11-15T03:51:31;18.10;62.50
39931;DHT22;26635;-35.248;149.138;2022-11-15T03:54:04;17.80;61.50
39931;DHT22;26635;-35.248;149.138;2022-11-15T03:56:34;17.70;63.30
39931;DHT22;26635;-35.248;149.138;2022-11-15T03:59:04;17.50;63.40
39931;DHT22;26635;-35.248;149.138;2022-11-15T04:01:38;17.30;63.10
39931;DHT22;26635;-35.248;149.138;2022-11-15T04:04:08;17.10;63.50
39931;DHT22;26635;-35.248;149.138;2022-11-15T04:06:38;16.80;61.80
39931;DHT22;26635;-35.248;149.138;2022-11-15T04:09:09;16.70;64.60
39931;DHT22;26635;-35.248;149.138;2022-11-15T04:11:39;16.60;64.80
39931;DHT22;26635;-35.248;149.138;2022-11-15T04:14:10;16.60;64.70
39931;DHT22;26635;-35.248;149.138;2022-11-15T04:16:41;16.70;64.50
39931;DHT22;26635;-35.248;149.138;2022-11-15T04:19:12;16.80;62.70
39931;DHT22;26635;-35.248;149.138;2022-11-15T04:22:00;16.70;62.60
39931;DHT22;26635;-35.248;149.138;2022-11-15T04:24:49;16.60;63.40
39931;DHT22;26635;-35.248;149.138;2022-11-15T04:27:19;16.50;63.50
39931;DHT22;26635;-35.248;149.138;2022-11-15T04:29:50;16.30;62.60
39931;DHT22;26635;-35.248;149.138;2022-11-15T04:32:20;16.20;64.10
39931;DHT22;26635;-35.248;149.138;2022-11-15T04:34:51;16.10;65.40
39931;DHT22;26635;-35.248;149.138;2022-11-15T04:37:22;16.00;65.30
39931;DHT22;26635;-35.248;149.138;2022-11-15T04:39:53;15.90;65.60
39931;DHT22;26635;-35.248;149.138;2022-11-15T04:42:23;15.90;65.90
39931;DHT22;26635;-35.248;149.138;2022-11-15T04:44:54;15.80;65.60
39931;DHT22;26635;-35.248;149.138;2022-11-15T04:47:25;15.70;66.30
39931;DHT22;26635;-35.248;149.138;2022-11-15T04:49:57;15.70;66.60
39931;DHT22;26635;-35.248;149.138;2022-11-15T04:52:28;15.60;64.60
39931;DHT22;26635;-35.248;149.138;2022-11-15T04:55:02;15.60;67.60
39931;DHT22;26635;-35.248;149.138;2022-11-15T04:57:35;15.40;65.70
39931;DHT22;26635;-35.248;149.138;2022-11-15T05:00:09;15.40;66.20
39931;DHT22;26635;-35.248;149.138;2022-11-15T05:02:40;15.40;66.30
39931;DHT22;26635;-35.248;149.138;2022-11-15T05:05:28;15.30;65.10
39931;DHT22;26635;-35.248;149.138;2022-11-15T05:07:59;15.20;67.30
39931;DHT22;26635;-35.248;149.138;2022-11-15T05:10:31;15.10;67.50
39931;DHT22;26635;-35.248;149.138;2022-11-15T05:13:02;15.10;66.90
39931;DHT22;26635;-35.248;149.138;2022-11-15T05:15:33;15.10;65.90
39931;DHT22;26635;-35.248;149.138;2022-11-15T05:18:03;15.30;67.90
39931;DHT22;26635;-35.248;149.138;2022-11-15T05:20:36;15.60;68.10
39931;DHT22;26635;-35.248;149.138;2022-11-15T05:23:07;15.80;67.30
39931;DHT22;26635;-35.248;149.138;2022-11-15T05:25:45;16.00;66.40
39931;DHT22;26635;-35.248;149.138;2022-11-15T05:28:16;16.20;63.80
39931;DHT22;26635;-35.248;149.138;2022-11-15T05:30:46;16.20;64.80
39931;DHT22;26635;-35.248;149.138;2022-11-15T05:33:22;16.20;64.70
39931;DHT22;26635;-35.248;149.138;2022-11-15T05:36:02;16.20;63.50
39931;DHT22;26635;-35.248;149.138;2022-11-15T05:38:36;16.30;63.60
39931;DHT22;26635;-35.248;149.138;2022-11-15T05:41:07;16.20;64.20
39931;DHT22;26635;-35.248;149.138;2022-11-15T05:43:39;16.30;64.50
39931;DHT22;26635;-35.248;149.138;2022-11-15T05:46:13;16.40;65.80
39931;DHT22;26635;-35.248;149.138;2022-11-15T05:48:50;16.50;64.70
39931;DHT22;26635;-35.248;149.138;2022-11-15T05:51:28;16.60;65.70
39931;DHT22;26635;-35.248;149.138;2022-11-15T05:54:00;16.70;66.00
39931;DHT22;26635;-35.248;149.138;2022-11-15T05:56:32;16.50;65.10
39931;DHT22;26635;-35.248;149.138;2022-11-15T05:59:03;16.40;63.50
39931;DHT22;26635;-35.248;149.138;2022-11-15T06:01:37;16.30;64.40
39931;DHT22;26635;-35.248;149.138;2022-11-15T06:04:08;16.20;65.10
39931;DHT22;26635;-35.248;149.138;2022-11-15T06:06:39;16.00;64.60
39931;DHT22;26635;-35.248;149.138;2022-11-15T06:09:09;15.90;64.10
39931;DHT22;26635;-35.248;149.138;2022-11-15T06:11:40;15.80;64.30
39931;DHT22;26635;-35.248;149.138;2022-11-15T06:14:15;15.70;66.00
39931;DHT22;26635;-35.248;149.138;2022-11-15T06:17:05;15.70;66.70
39931;DHT22;26635;-35.248;149.138;2022-11-15T06:19:38;15.60;66.20
39931;DHT22;26635;-35.248;149.138;2022-11-15T06:22:08;15.60;66.50
39931;DHT22;26635;-35.248;149.138;2022-11-15T06:24:39;15.50;67.50
39931;DHT22;26635;-35.248;149.138;2022-11-15T06:27:10;15.40;65.60
39931;DHT22;26635;-35.248;149.138;2022-11-15T06:29:40;15.40;66.80
39931;DHT22;26635;-35.248;149.138;2022-11-15T06:32:12;15.40;66.20
39931;DHT22;26635;-35.248;149.138;2022-11-15T06:34:43;15.50;66.40
39931;DHT22;26635;-35.248;149.138;2022-11-15T06:37:13;15.60;66.40
39931;DHT22;26635;-35.248;149.138;2022-11-15T06:39:43;15.60;66.80
39931;DHT22;26635;-35.248;149.138;2022-11-15T06:42:15;15.60;67.30
39931;DHT22;26635;-35.248;149.138;2022-11-15T06:44:47;15.60;65.80
39931;DHT22;26635;-35.248;149.138;2022-11-15T06:47:18;15.40;65.30
39931;DHT22;26635;-35.248;149.138;2022-11-15T06:49:51;15.30;66.20
39931;DHT22;26635;-35.248;149.138;2022-11-15T06:52:24;15.10;68.10
39931;DHT22;26635;-35.248;149.138;2022-11-15T06:54:55;15.10;68.10
39931;DHT22;26635;-35.248;149.138;2022-11-15T06:57:26;15.00;67.30
39931;DHT22;26635;-35.248;149.138;2022-11-15T06:59:58;14.90;66.70
39931;DHT22;26635;-35.248;149.138;2022-11-15T07:02:29;14.90;66.30
39931;DHT22;26635;-35.248;149.138;2022-11-15T07:05:00;14.80;69.60
39931;DHT22;26635;-35.248;149.138;2022-11-15T07:07:34;14.80;68.80
39931;DHT22;26635;-35.248;149.138;2022-11-15T07:10:07;14.70;69.20
39931;DHT22;26635;-35.248;149.138;2022-11-15T07:12:40;14.60;68.40
39931;DHT22;26635;-35.248;149.138;2022-11-15T07:15:10;14.50;68.80
39931;DHT22;26635;-35.248;149.138;2022-11-15T07:17:41;14.50;69.60
39931;DHT22;26635;-35.248;149.138;2022-11-15T07:20:13;14.40;69.20
39931;DHT22;26635;-35.248;149.138;2022-11-15T07:22:44;14.30;69.20
39931;DHT22;26635;-35.248;149.138;2022-11-15T07:25:14;14.20;69.20
39931;DHT22;26635;-35.248;149.138;2022-11-15T07:27:55;14.20;69.90
39931;DHT22;26635;-35.248;149.138;2022-11-15T07:30:27;14.10;69.30
39931;DHT22;26635;-35.248;149.138;2022-11-15T07:32:59;14.00;68.70
39931;DHT22;26635;-35.248;149.138;2022-11-15T07:35:31;14.00;71.00
39931;DHT22;26635;-35.248;149.138;2022-11-15T07:38:03;13.90;70.50
39931;DHT22;26635;-35.248;149.138;2022-11-15T07:40:34;13.90;68.60
39931;DHT22;26635;-35.248;149.138;2022-11-15T07:43:07;13.90;68.70
39931;DHT22;26635;-35.248;149.138;2022-11-15T07:45:44;13.80;70.60
39931;DHT22;26635;-35.248;149.138;2022-11-15T07:48:16;13.70;69.00
39931;DHT22;26635;-35.248;149.138;2022-11-15T07:50:47;13.70;69.30
39931;DHT22;26635;-35.248;149.138;2022-11-15T07:53:17;13.70;69.00
39931;DHT22;26635;-35.248;149.138;2022-11-15T07:55:48;13.70;69.10
39931;DHT22;26635;-35.248;149.138;2022-11-15T07:58:19;13.60;68.10
39931;DHT22;26635;-35.248;149.138;2022-11-15T08:00:51;13.50;68.20
39931;DHT22;26635;-35.248;149.138;2022-11-15T08:03:24;13.50;67.40
39931;DHT22;26635;-35.248;149.138;2022-11-15T08:05:57;13.50;70.00
39931;DHT22;26635;-35.248;149.138;2022-11-15T08:08:31;13.40;69.90
39931;DHT22;26635;-35.248;149.138;2022-11-15T08:11:05;13.40;69.50
39931;DHT22;26635;-35.248;149.138;2022-11-15T08:13:41;13.30;68.60
39931;DHT22;26635;-35.248;149.138;2022-11-15T08:16:14;13.20;69.10
39931;DHT22;26635;-35.248;149.138;2022-11-15T08:18:46;13.20;69.30
39931;DHT22;26635;-35.248;149.138;2022-11-15T08:21:19;13.10;69.10
39931;DHT22;26635;-35.248;149.138;2022-11-15T08:23:51;13.10;68.90
39931;DHT22;26635;-35.248;149.138;2022-11-15T08:26:23;13.00;69.30
39931;DHT22;26635;-35.248;149.138;2022-11-15T08:28:56;13.00;69.50
39931;DHT22;26635;-35.248;149.138;2022-11-15T08:31:27;13.00;68.20
39931;DHT22;26635;-35.248;149.138;2022-11-15T08:34:00;12.90;68.80
39931;DHT22;26635;-35.248;149.138;2022-11-15T08:36:33;12.80;70.30
39931;DHT22;26635;-35.248;149.138;2022-11-15T08:39:12;12.80;70.10
39931;DHT22;26635;-35.248;149.138;2022-11-15T08:41:44;12.70;70.60
39931;DHT22;26635;-35.248;149.138;2022-11-15T08:44:20;12.70;70.20
39931;DHT22;26635;-35.248;149.138;2022-11-15T08:46:51;12.70;70.20
39931;DHT22;26635;-35.248;149.138;2022-11-15T08:49:23;12.60;71.30
39931;DHT22;26635;-35.248;149.138;2022-11-15T08:51:53;12.50;69.20
39931;DHT22;26635;-35.248;149.138;2022-11-15T08:54:24;12.50;69.50
39931;DHT22;26635;-35.248;149.138;2022-11-15T08:56:55;12.40;69.20
39931;DHT22;26635;-35.248;149.138;2022-11-15T08:59:26;12.30;72.40
39931;DHT22;26635;-35.248;149.138;2022-11-15T09:01:58;12.30;71.10
39931;DHT22;26635;-35.248;149.138;2022-11-15T09:04:29;12.20;70.70
39931;DHT22;26635;-35.248;149.138;2022-11-15T09:06:59;12.20;71.30
39931;DHT22;26635;-35.248;149.138;2022-11-15T09:09:30;12.10;71.00
39931;DHT22;26635;-35.248;149.138;2022-11-15T09:12:00;12.10;71.70
39931;DHT22;26635;-35.248;149.138;2022-11-15T09:14:33;12.10;70.70
39931;DHT22;26635;-35.248;149.138;2022-11-15T09:17:07;12.10;71.10
39931;DHT22;26635;-35.248;149.138;2022-11-15T09:19:38;12.10;70.90
39931;DHT22;26635;-35.248;149.138;2022-11-15T09:22:09;12.10;70.90
39931;DHT22;26635;-35.248;149.138;2022-11-15T09:24:40;12.00;71.10
39931;DHT22;26635;-35.248;149.138;2022-11-15T09:27:12;11.90;72.50
39931;DHT22;26635;-35.248;149.138;2022-11-15T09:29:59;11.90;74.60
39931;DHT22;26635;-35.248;149.138;2022-11-15T09:32:30;11.90;72.30
39931;DHT22;26635;-35.248;149.138;2022-11-15T09:35:06;11.80;73.60
39931;DHT22;26635;-35.248;149.138;2022-11-15T09:37:39;11.80;73.90
39931;DHT22;26635;-35.248;149.138;2022-11-15T09:40:14;11.80;73.60
39931;DHT22;26635;-35.248;149.138;2022-11-15T09:43:02;11.80;73.60
39931;DHT22;26635;-35.248;149.138;2022-11-15T09:46:02;11.80;75.10
39931;DHT22;26635;-35.248;149.138;2022-11-15T09:48:41;11.70;74.60
39931;DHT22;26635;-35.248;149.138;2022-11-15T09:51:32;11.60;74.20
39931;DHT22;26635;-35.248;149.138;2022-11-15T09:54:29;11.60;74.70
39931;DHT22;26635;-35.248;149.138;2022-11-15T09:57:42;11.60;74.00
39931;DHT22;26635;-35.248;149.138;2022-11-15T10:00:42;11.50;74.10
39931;DHT22;26635;-35.248;149.138;2022-11-15T10:03:33;11.50;74.90
39931;DHT22;26635;-35.248;149.138;2022-11-15T10:06:05;11.40;75.60
39931;DHT22;26635;-35.248;149.138;2022-11-15T10:11:30;11.40;75.10
39931;DHT22;26635;-35.248;149.138;2022-11-15T10:14:26;11.40;76.60
39931;DHT22;26635;-35.248;149.138;2022-11-15T10:22:53;11.20;76.00
39931;DHT22;26635;-35.248;149.138;2022-11-15T10:25:31;11.10;76.30
39931;DHT22;26635;-35.248;149.138;2022-11-15T10:28:17;11.00;77.30
39931;DHT22;26635;-35.248;149.138;2022-11-15T10:31:27;11.00;76.60
39931;DHT22;26635;-35.248;149.138;2022-11-15T10:34:20;11.00;77.90
39931;DHT22;26635;-35.248;149.138;2022-11-15T10:37:01;10.90;75.40
39931;DHT22;26635;-35.248;149.138;2022-11-15T10:39:32;10.90;76.70
39931;DHT22;26635;-35.248;149.138;2022-11-15T10:42:39;10.90;76.70
39931;DHT22;26635;-35.248;149.138;2022-11-15T10:45:33;10.80;77.60
39931;DHT22;26635;-35.248;149.138;2022-11-15T10:48:23;10.80;78.40
39931;DHT22;26635;-35.248;149.138;2022-11-15T10:51:27;10.80;75.70
39931;DHT22;26635;-35.248;149.138;2022-11-15T10:53:59;10.80;77.10
39931;DHT22;26635;-35.248;149.138;2022-11-15T10:56:34;10.80;77.30
39931;DHT22;26635;-35.248;149.138;2022-11-15T10:59:05;10.90;77.80
39931;DHT22;26635;-35.248;149.138;2022-11-15T11:01:46;10.80;77.30
39931;DHT22;26635;-35.248;149.138;2022-11-15T11:04:19;10.70;76.80
39931;DHT22;26635;-35.248;149.138;2022-11-15T11:06:55;10.80;76.40
39931;DHT22;26635;-35.248;149.138;2022-11-15T11:09:35;10.70;77.00
39931;DHT22;26635;-35.248;149.138;2022-11-15T11:12:10;10.70;78.00
39931;DHT22;26635;-35.248;149.138;2022-11-15T11:14:41;10.70;77.50
39931;DHT22;26635;-35.248;149.138;2022-11-15T11:17:48;10.70;78.10
39931;DHT22;26635;-35.248;149.138;2022-11-15T11:20:40;10.60;77.70
39931;DHT22;26635;-35.248;149.138;2022-11-15T11:31:39;10.50;77.80
39931;DHT22;26635;-35.248;149.138;2022-11-15T11:48:44;10.30;78.40
39931;DHT22;26635;-35.248;149.138;2022-11-15T11:51:28;10.30;79.20
39931;DHT22;26635;-35.248;149.138;2022-11-15T11:54:13;10.30;79.20
39931;DHT22;26635;-35.248;149.138;2022-11-15T11:56:46;10.30;78.30
39931;DHT22;26635;-35.248;149.138;2022-11-15T12:01:55;10.20;79.00
39931;DHT22;26635;-35.248;149.138;2022-11-15T12:04:40;10.20;77.90
39931;DHT22;26635;-35.248;149.138;2022-11-15T12:07:25;10.20;80.20
39931;DHT22;26635;-35.248;149.138;2022-11-15T12:10:12;10.10;78.80
39931;DHT22;26635;-35.248;149.138;2022-11-15T12:15:52;10.10;80.40
39931;DHT22;26635;-35.248;149.138;2022-11-15T12:18:26;10.10;79.00
39931;DHT22;26635;-35.248;149.138;2022-11-15T12:21:24;10.10;81.30
39931;DHT22;26635;-35.248;149.138;2022-11-15T12:24:02;10.10;81.40
39931;DHT22;26635;-35.248;149.138;2022-11-15T12:26:45;10.10;80.60
39931;DHT22;26635;-35.248;149.138;2022-11-15T12:31:57;10.00;80.90
39931;DHT22;26635;-35.248;149.138;2022-11-15T12:34:45;10.10;80.80
39931;DHT22;26635;-35.248;149.138;2022-11-15T12:42:44;10.00;81.40
39931;DHT22;26635;-35.248;149.138;2022-11-15T12:45:38;9.90;81.70
39931;DHT22;26635;-35.248;149.138;2022-11-15T12:53:32;9.80;82.20
39931;DHT22;26635;-35.248;149.138;2022-11-15T12:58:56;9.80;81.30
39931;DHT22;26635;-35.248;149.138;2022-11-15T13:07:02;9.70;81.50
39931;DHT22;26635;-35.248;149.138;2022-11-15T13:15:30;9.70;83.50
39931;DHT22;26635;-35.248;149.138;2022-11-15T13:17:54;9.60;82.80
39931;DHT22;26635;-35.248;149.138;2022-11-15T13:20:30;9.60;82.90
39931;DHT22;26635;-35.248;149.138;2022-11-15T13:23:15;9.60;82.30
39931;DHT22;26635;-35.248;149.138;2022-11-15T13:28:43;9.50;82.00
39931;DHT22;26635;-35.248;149.138;2022-11-15T13:34:33;9.40;84.20
39931;DHT22;26635;-35.248;149.138;2022-11-15T13:39:51;9.30;83.20
39931;DHT22;26635;-35.248;149.138;2022-11-15T13:42:22;9.40;83.60
39931;DHT22;26635;-35.248;149.138;2022-11-15T13:45:00;9.30;83.60
39931;DHT22;26635;-35.248;149.138;2022-11-15T13:47:32;9.20;83.80
39931;DHT22;26635;-35.248;149.138;2022-11-15T13:50:03;9.20;83.40
39931;DHT22;26635;-35.248;149.138;2022-11-15T13:52:40;9.20;85.10
39931;DHT22;26635;-35.248;149.138;2022-11-15T13:57:58;9.20;84.80
39931;DHT22;26635;-35.248;149.138;2022-11-15T14:00:41;9.20;85.40
39931;DHT22;26635;-35.248;149.138;2022-11-15T14:03:24;9.10;84.80
39931;DHT22;26635;-35.248;149.138;2022-11-15T14:06:15;9.00;84.70
39931;DHT22;26635;-35.248;149.138;2022-11-15T14:11:49;9.00;84.60
39931;DHT22;26635;-35.248;149.138;2022-11-15T14:14:23;8.90;84.20
39931;DHT22;26635;-35.248;149.138;2022-11-15T14:17:00;8.90;85.10
39931;DHT22;26635;-35.248;149.138;2022-11-15T14:19:36;8.80;85.20
39931;DHT22;26635;-35.248;149.138;2022-11-15T14:22:21;8.80;84.60
39931;DHT22;26635;-35.248;149.138;2022-11-15T14:25:15;8.80;84.90
39931;DHT22;26635;-35.248;149.138;2022-11-15T14:28:11;8.70;84.30
39931;DHT22;26635;-35.248;149.138;2022-11-15T14:30:47;8.70;84.10
39931;DHT22;26635;-35.248;149.138;2022-11-15T14:33:35;8.70;85.20
39931;DHT22;26635;-35.248;149.138;2022-11-15T14:36:14;8.60;84.50
39931;DHT22;26635;-35.248;149.138;2022-11-15T14:38:47;8.60;85.90
39931;DHT22;26635;-35.248;149.138;2022-11-15T14:41:23;8.60;85.80
39931;DHT22;26635;-35.248;149.138;2022-11-15T14:43:54;8.60;86.70
39931;DHT22;26635;-35.248;149.138;2022-11-15T14:46:25;8.60;86.60
39931;DHT22;26635;-35.248;149.138;2022-11-15T14:48:56;8.60;87.50
39931;DHT22;26635;-35.248;149.138;2022-11-15T14:51:27;8.50;87.80
39931;DHT22;26635;-35.248;149.138;2022-11-15T14:53:58;8.50;89.00
39931;DHT22;26635;-35.248;149.138;2022-11-15T14:56:28;8.30;88.80
39931;DHT22;26635;-35.248;149.138;2022-11-15T14:58:58;8.30;88.50
39931;DHT22;26635;-35.248;149.138;2022-11-15T15:01:29;8.20;88.80
39931;DHT22;26635;-35.248;149.138;2022-11-15T15:03:59;8.10;89.80
39931;DHT22;26635;-35.248;149.138;2022-11-15T15:06:30;8.00;90.00
39931;DHT22;26635;-35.248;149.138;2022-11-15T15:09:00;7.90;90.10
39931;DHT22;26635;-35.248;149.138;2022-11-15T15:11:31;7.90;90.00
39931;DHT22;26635;-35.248;149.138;2022-11-15T15:14:01;7.80;89.20
39931;DHT22;26635;-35.248;149.138;2022-11-15T15:16:32;7.80;90.10
39931;DHT22;26635;-35.248;149.138;2022-11-15T15:19:03;7.80;90.10
39931;DHT22;26635;-35.248;149.138;2022-11-15T15:21:34;7.90;90.20
39931;DHT22;26635;-35.248;149.138;2022-11-15T15:24:05;7.90;89.80
39931;DHT22;26635;-35.248;149.138;2022-11-15T15:26:35;7.90;89.70
39931;DHT22;26635;-35.248;149.138;2022-11-15T15:29:07;7.90;89.80
39931;DHT22;26635;-35.248;149.138;2022-11-15T15:31:38;7.90;90.20
39931;DHT22;26635;-35.248;149.138;2022-11-15T15:34:10;7.90;90.30
39931;DHT22;26635;-35.248;149.138;2022-11-15T15:36:43;7.80;90.00
39931;DHT22;26635;-35.248;149.138;2022-11-15T15:39:14;7.80;90.30
39931;DHT22;26635;-35.248;149.138;2022-11-15T15:41:45;7.80;90.40
39931;DHT22;26635;-35.248;149.138;2022-11-15T15:44:23;7.70;90.60
39931;DHT22;26635;-35.248;149.138;2022-11-15T15:46:54;7.70;90.70
39931;DHT22;26635;-35.248;149.138;2022-11-15T15:49:25;7.60;90.80
39931;DHT22;26635;-35.248;149.138;2022-11-15T15:51:56;7.50;91.00
39931;DHT22;26635;-35.248;149.138;2022-11-15T15:57:02;7.40;90.90
39931;DHT22;26635;-35.248;149.138;2022-11-15T15:59:33;7.40;91.10
39931;DHT22;26635;-35.248;149.138;2022-11-15T16:02:04;7.30;90.60
39931;DHT22;26635;-35.248;149.138;2022-11-15T16:04:35;7.20;91.10
39931;DHT22;26635;-35.248;149.138;2022-11-15T16:07:08;7.20;91.50
39931;DHT22;26635;-35.248;149.138;2022-11-15T16:09:46;7.20;91.60
39931;DHT22;26635;-35.248;149.138;2022-11-15T16:12:35;7.20;91.30
39931;DHT22;26635;-35.248;149.138;2022-11-15T16:15:08;7.20;91.60
39931;DHT22;26635;-35.248;149.138;2022-11-15T16:17:43;7.20;91.70
39931;DHT22;26635;-35.248;149.138;2022-11-15T16:20:46;7.30;91.70
39931;DHT22;26635;-35.248;149.138;2022-11-15T16:23:19;7.30;91.30
39931;DHT22;26635;-35.248;149.138;2022-11-15T16:25:54;7.30;91.30
39931;DHT22;26635;-35.248;149.138;2022-11-15T16:28:30;7.30;91.60
39931;DHT22;26635;-35.248;149.138;2022-11-15T16:31:10;7.30;92.00
39931;DHT22;26635;-35.248;149.138;2022-11-15T16:33:41;7.30;91.40
39931;DHT22;26635;-35.248;149.138;2022-11-15T16:36:20;7.30;91.60
39931;DHT22;26635;-35.248;149.138;2022-11-15T16:38:58;7.30;92.20
39931;DHT22;26635;-35.248;149.138;2022-11-15T16:41:29;7.30;91.30
39931;DHT22;26635;-35.248;149.138;2022-11-15T16:44:00;7.30;91.40
39931;DHT22;26635;-35.248;149.138;2022-11-15T16:46:31;7.20;91.40
39931;DHT22;26635;-35.248;149.138;2022-11-15T16:49:02;7.30;91.60
39931;DHT22;26635;-35.248;149.138;2022-11-15T16:51:33;7.30;91.90
39931;DHT22;26635;-35.248;149.138;2022-11-15T16:54:05;7.20;92.00
39931;DHT22;26635;-35.248;149.138;2022-11-15T16:56:36;7.30;91.70
39931;DHT22;26635;-35.248;149.138;2022-11-15T16:59:08;7.30;91.80
39931;DHT22;26635;-35.248;149.138;2022-11-15T17:01:41;7.30;91.10
39931;DHT22;26635;-35.248;149.138;2022-11-15T17:04:20;7.30;91.50
39931;DHT22;26635;-35.248;149.138;2022-11-15T17:06:51;7.20;91.00
39931;DHT22;26635;-35.248;149.138;2022-11-15T17:09:23;7.20;90.60
39931;DHT22;26635;-35.248;149.138;2022-11-15T17:11:54;7.20;90.50
39931;DHT22;26635;-35.248;149.138;2022-11-15T17:14:25;7.20;91.20
39931;DHT22;26635;-35.248;149.138;2022-11-15T17:16:56;7.20;91.40
39931;DHT22;26635;-35.248;149.138;2022-11-15T17:19:28;7.20;91.90
39931;DHT22;26635;-35.248;149.138;2022-11-15T17:21:59;7.20;91.40
39931;DHT22;26635;-35.248;149.138;2022-11-15T17:24:30;7.30;91.50
39931;DHT22;26635;-35.248;149.138;2022-11-15T17:27:02;7.30;91.80
39931;DHT22;26635;-35.248;149.138;2022-11-15T17:29:33;7.30;92.00
39931;DHT22;26635;-35.248;149.138;2022-11-15T17:32:08;7.30;91.90
39931;DHT22;26635;-35.248;149.138;2022-11-15T17:34:40;7.30;91.50